»·PEaware :: N2MA KPSP-L05

N2MA :: KPSP-L05

FLIGHT INFORMATION

Flight Status: Arrived
Operator: Privately registered:
United States
More flights under this callsign
Pilot: Anonymous 13363 (13363)
Aircraft: PIPER PA-34 SENECA
(PA34)
More flights by this aircraft type
Origin: KPSP Palm Springs Intl
United States
Destination: L05 Kern Valley
United States
More flights between these airports :: More routes between these airports
Route: +CATH1 PSP SOGGI V386 APLES HELDE
File this flight plan on PilotEdge
Remarks:
Altitude:
(Current/Filed)
18,000ft
Speed:
(Current/Filed)
260kts
Departed: 10-Dec-17 04:53 PM
Arrived: 10-Dec-17 06:01 PM
Distance/Time
Traveled:
147nm/1:08
Distance/Time
To Go:
Arrived

Flight Plot

Page will automatically refresh every two minutes.

Flight plan parsing failed; only flown route is shown


Map Options




Map Legend


Flown Route
Filed Route
Departure Airport
Arrival Airport
Navaid (VOR, NDB)
Fix

Horizontal Profiles

Position Reports

Time Latitude Longitude Heading Altitude Ground
Speed
10-Dec-17 16:45 33.822485 -116.495998 233 479ft 0kts
10-Dec-17 16:46 33.822485 -116.495998 233 479ft 0kts
10-Dec-17 16:47 33.822484 -116.495998 233 479ft 0kts
10-Dec-17 16:48 33.822484 -116.495998 233 479ft 0kts
10-Dec-17 16:49 33.822484 -116.495998 233 479ft 0kts
10-Dec-17 16:50 33.822484 -116.495998 233 479ft 0kts
10-Dec-17 16:51 33.822484 -116.495998 233 479ft 0kts
10-Dec-17 16:52 33.822484 -116.495998 233 479ft 0kts
10-Dec-17 16:53 33.822484 -116.495998 233 479ft 0kts
10-Dec-17 16:54 33.822484 -116.495998 233 479ft 0kts
10-Dec-17 16:55 33.822475 -116.496012 232 479ft 1kts
10-Dec-17 16:56 33.824276 -116.498754 324 479ft 17kts
10-Dec-17 16:57 33.824636 -116.499553 238 479ft 0kts
10-Dec-17 16:58 33.825352 -116.500936 322 479ft 46kts
10-Dec-17 16:59 33.847068 -116.520593 315 1357ft 108kts
10-Dec-17 17:00 33.869009 -116.544913 318 2538ft 108kts
10-Dec-17 17:01 33.890205 -116.567807 322 3837ft 92kts
10-Dec-17 17:02 33.901450 -116.552129 98 5221ft 85kts
10-Dec-17 17:03 33.896490 -116.524712 105 6528ft 85kts
10-Dec-17 17:04 33.889159 -116.495709 108 7720ft 105kts
10-Dec-17 17:05 33.879269 -116.462325 104 9259ft 102kts
10-Dec-17 17:06 33.870680 -116.432740 104 11005ft 87kts
10-Dec-17 17:07 33.865435 -116.405026 50 12377ft 105kts
10-Dec-17 17:08 33.892429 -116.416287 332 13827ft 112kts
10-Dec-17 17:09 33.919279 -116.432910 342 15205ft 113kts
10-Dec-17 17:10 33.949240 -116.447051 345 16584ft 119kts
10-Dec-17 17:11 33.980332 -116.460430 346 17922ft 124kts
10-Dec-17 17:12 34.023009 -116.478053 344 18060ft 192kts
10-Dec-17 17:13 34.076131 -116.500243 344 18102ft 211kts
10-Dec-17 17:14 34.128718 -116.522143 344 18101ft 198kts
10-Dec-17 17:15 34.175851 -116.541825 345 19305ft 165kts
10-Dec-17 17:16 34.212743 -116.557300 347 20902ft 126kts
10-Dec-17 17:17 34.245063 -116.570636 348 22027ft 125kts
10-Dec-17 17:18 34.282906 -116.586078 346 22355ft 168kts
10-Dec-17 17:19 34.329612 -116.605654 345 22375ft 187kts
10-Dec-17 17:20 34.380127 -116.626813 345 22403ft 199kts
10-Dec-17 17:21 34.433259 -116.649047 345 22331ft 207kts
10-Dec-17 17:22 34.474438 -116.666312 344 22317ft 207kts
10-Dec-17 17:23 34.506309 -116.712728 276 22319ft 213kts
10-Dec-17 17:24 34.513304 -116.783145 275 22317ft 213kts
10-Dec-17 17:25 34.520063 -116.853000 275 22318ft 213kts
10-Dec-17 17:26 34.526905 -116.923775 275 22318ft 214kts
10-Dec-17 17:27 34.533631 -116.993777 275 22318ft 214kts
10-Dec-17 17:28 34.540080 -117.061255 275 22318ft 214kts
10-Dec-17 17:29 34.546333 -117.127080 275 22319ft 214kts
10-Dec-17 17:31 34.571137 -117.183468 310 22319ft 213kts
10-Dec-17 17:32 34.604838 -117.233571 311 22368ft 211kts
10-Dec-17 17:33 34.639824 -117.285774 311 22481ft 208kts
10-Dec-17 17:34 34.674292 -117.337310 311 22509ft 211kts
10-Dec-17 17:35 34.709893 -117.387987 323 22510ft 210kts
10-Dec-17 17:36 34.752173 -117.430148 323 22509ft 210kts
10-Dec-17 17:37 34.794641 -117.472486 323 22510ft 211kts
10-Dec-17 17:38 34.836583 -117.514405 323 22434ft 214kts
10-Dec-17 17:39 34.879051 -117.556923 323 22328ft 216kts
10-Dec-17 17:40 34.919816 -117.597805 323 22295ft 215kts
10-Dec-17 17:41 34.960450 -117.638600 323 22294ft 214kts
10-Dec-17 17:42 34.996583 -117.674910 322 22291ft 213kts
10-Dec-17 17:43 35.039410 -117.718016 323 22291ft 212kts
10-Dec-17 17:44 35.082614 -117.761559 323 22291ft 212kts
10-Dec-17 17:45 35.123725 -117.803053 322 22289ft 212kts
10-Dec-17 17:46 35.164841 -117.844608 323 22290ft 212kts
10-Dec-17 17:47 35.207861 -117.888145 323 22290ft 212kts
10-Dec-17 17:48 35.250878 -117.931741 323 22290ft 212kts
10-Dec-17 17:49 35.294571 -117.976078 322 22125ft 218kts
10-Dec-17 17:50 35.340295 -118.022501 322 21180ft 228kts
10-Dec-17 17:51 35.386888 -118.069975 322 20228ft 228kts
10-Dec-17 17:52 35.433113 -118.117120 322 19271ft 224kts
10-Dec-17 17:53 35.478807 -118.163781 322 18312ft 221kts
10-Dec-17 17:54 35.523801 -118.209804 322 17339ft 212kts
10-Dec-17 17:55 35.558111 -118.244939 322 16229ft 205kts
10-Dec-17 17:56 35.596491 -118.284327 322 14319ft 175kts
10-Dec-17 17:57 35.627346 -118.316071 323 11873ft 126kts
10-Dec-17 17:58 35.646572 -118.345437 284 9728ft 138kts
10-Dec-17 17:59 35.654177 -118.387260 287 8370ft 132kts
10-Dec-17 18:00 35.664049 -118.425796 286 7093ft 117kts
10-Dec-17 18:01 35.669884 -118.459461 261 5373ft 100kts
10-Dec-17 18:02 35.652652 -118.468522 102 4346ft 96kts
10-Dec-17 18:03 35.675020 -118.451808 16 4013ft 115kts
10-Dec-17 18:04 35.706309 -118.441493 11 3969ft 127kts
10-Dec-17 18:05 35.735897 -118.430553 20 3359ft 115kts
10-Dec-17 18:06 35.731160 -118.419443 188 2617ft 78kts
10-Dec-17 18:07 35.724205 -118.420109 4 2615ft 12kts
10-Dec-17 18:08 35.726787 -118.419576 134 2615ft 5kts
10-Dec-17 18:09 35.723425 -118.417671 172 2615ft 14kts
10-Dec-17 18:10 35.721225 -118.417880 276 2615ft 0kts
10-Dec-17 18:11 35.721225 -118.417883 276 2615ft 0kts
10-Dec-17 18:12 35.721225 -118.417883 276 2615ft 0kts
10-Dec-17 18:13 35.721225 -118.417883 276 2615ft 0kts
10-Dec-17 18:14 35.721225 -118.417883 276 2615ft 0kts
10-Dec-17 18:15 35.721225 -118.417883 276 2615ft 0kts
10-Dec-17 18:16 35.721225 -118.417883 276 2615ft 0kts
10-Dec-17 18:17 35.721225 -118.417883 276 2615ft 0kts
10-Dec-17 18:18 35.721225 -118.417883 276 2615ft 0kts
10-Dec-17 18:19 35.721225 -118.417883 276 2615ft 0kts
10-Dec-17 18:20 35.721225 -118.417883 276 2615ft 0kts
10-Dec-17 18:21 35.721225 -118.417883 276 2615ft 0kts

Navigation Log

Ident Type
Flight plan parsing failed, navigation log unavailable